Time;durP1;ratioP1;P1;durP2;ratioP2;P2;SDS_P1;SDS_P2;PMS_P1;PMS_P2;Temp;Humidity;BMP_temperature;BMP_pressure;BME280_temperature;BME280_humidity;BME280_pressure;Samples;Min_cycle;Max_cycle;Signal;HPM_P1;HPM_P2
2022/08/13 00:00:45;;;;;;;;;;;;;;;;;;7374879;19;868;-37
2022/08/13 00:03:13;;;;;;;;;;;;;;;;;;7375008;19;1885;-39
2022/08/13 00:05:43;;;;;;;;;;;;;;;;;;7376448;19;1845;-39
2022/08/13 00:08:11;;;;;;;;;;;;;;;;;;7371273;19;1321;-39
2022/08/13 00:10:40;;;;;;;;;;;;;;;;;;7373137;19;820;-38
2022/08/13 00:13:08;;;;;;;;;;;;;;;;;;7373604;19;867;-38
2022/08/13 00:15:36;;;;;;;;;;;;;;;;;;7373367;19;949;-39
2022/08/13 00:18:04;;;;;;;;;;;;;;;;;;7370866;19;1270;-39
2022/08/13 00:20:32;;;;;;;;;;;;;;;;;;7372689;19;1849;-38
2022/08/13 00:23:00;;;;;;;;;;;;;;;;;;7372398;19;788;-39
2022/08/13 00:25:29;;;;;;;;;;;;;;;;;;7371112;19;1859;-38
2022/08/13 00:28:04;;;;;;;;;;;;;;;;;;7370525;19;1271;-38
2022/08/13 00:30:33;;;;;;;;;;;;;;;;;;7371428;19;774;-38
2022/08/13 00:33:01;;;;;;;;;;;;;;;;;;7372501;19;903;-37
2022/08/13 00:35:29;;;;;;;;;;;;;;;;;;7373363;19;824;-39
2022/08/13 00:37:58;;;;;;;;;;;;;;;;;;7373066;19;1956;-37
2022/08/13 00:40:26;;;;;;;;;;;;;;;;;;7371543;19;799;-43
2022/08/13 00:42:55;;;;;;;;;;;;;;;;;;7372142;19;879;-39
2022/08/13 00:45:23;;;;;;;;;;;;;;;;;;7370607;19;1841;-37
2022/08/13 00:50:32;;;;;;;;;;;;;;;;;;7371583;19;776;-38
2022/08/13 00:53:01;;;;;;;;;;;;;;;;;;7372380;19;1734;-37
2022/08/13 00:55:29;;;;;;;;;;;;;;;;;;7378423;19;1845;-37
2022/08/13 00:57:58;;;;;;;;;;;;;;;;;;7382042;19;1317;-38
2022/08/13 01:00:26;;;;;;;;;;;;;;;;;;7382636;19;914;-38
2022/08/13 01:02:54;;;;;;;;;;;;;;;;;;7387418;19;1219;-40
2022/08/13 01:05:24;;;;;;;;;;;;;;;;;;7378837;19;1843;-37
2022/08/13 01:07:52;;;;;;;;;;;;;;;;;;7370096;19;1270;-38
2022/08/13 01:10:20;;;;;;;;;;;;;;;;;;7372528;19;1902;-38
2022/08/13 01:12:50;;;;;;;;;;;;;;;;;;7372092;19;840;-38
2022/08/13 01:15:18;;;;;;;;;;;;;;;;;;7372191;19;843;-38
2022/08/13 01:17:46;;;;;;;;;;;;;;;;;;7369515;19;1325;-37
2022/08/13 01:20:21;;;;;;;;;;;;;;;;;;7369495;19;882;-38
2022/08/13 01:22:49;;;;;;;;;;;;;;;;;;7371204;19;802;-37
2022/08/13 01:25:20;;;;;;;;;;;;;;;;;;7369452;19;1843;-38
2022/08/13 01:27:49;;;;;;;;;;;;;;;;;;7371558;19;2195;-38
2022/08/13 01:30:17;;;;;;;;;;;;;;;;;;7371043;19;816;-37
2022/08/13 01:32:45;;;;;;;;;;;;;;;;;;7371817;19;824;-38
2022/08/13 01:35:13;;;;;;;;;;;;;;;;;;7371506;19;868;-37
2022/08/13 01:37:41;;;;;;;;;;;;;;;;;;7368936;19;1314;-37
2022/08/13 01:40:09;;;;;;;;;;;;;;;;;;7369730;19;958;-38
2022/08/13 01:42:37;;;;;;;;;;;;;;;;;;7370833;19;1919;-38
2022/08/13 01:45:06;;;;;;;;;;;;;;;;;;7369696;19;1850;-39
2022/08/13 01:52:59;;;;;;;;;;;;;;;;;;7369640;19;796;-38
2022/08/13 01:55:29;;;;;;;;;;;;;;;;;;7370490;19;743;-38
2022/08/13 01:57:57;;;;;;;;;;;;;;;;;;7369311;19;1695;-39
2022/08/13 02:00:25;;;;;;;;;;;;;;;;;;7369840;19;976;-38
2022/08/13 02:02:53;;;;;;;;;;;;;;;;;;7369962;19;822;-38
2022/08/13 02:05:22;;;;;;;;;;;;;;;;;;7370038;19;1931;-37
2022/08/13 02:07:50;;;;;;;;;;;;;;;;;;7368219;19;1272;-38
2022/08/13 02:10:18;;;;;;;;;;;;;;;;;;7367911;19;1018;-43
2022/08/13 02:12:46;;;;;;;;;;;;;;;;;;7373645;19;1886;-38
2022/08/13 02:15:15;;;;;;;;;;;;;;;;;;7370591;19;794;-38
2022/08/13 02:17:43;;;;;;;;;;;;;;;;;;7365876;19;1306;-38
2022/08/13 02:20:11;;;;;;;;;;;;;;;;;;7369302;19;822;-44
2022/08/13 02:22:39;;;;;;;;;;;;;;;;;;7369065;19;1028;-39
2022/08/13 02:25:08;;;;;;;;;;;;;;;;;;7368290;19;1861;-38
2022/08/13 02:27:36;;;;;;;;;;;;;;;;;;7367126;19;1882;-38
2022/08/13 02:30:05;;;;;;;;;;;;;;;;;;7367904;19;823;-39
2022/08/13 02:32:35;;;;;;;;;;;;;;;;;;7370236;19;1903;-39
2022/08/13 02:35:04;;;;;;;;;;;;;;;;;;7369156;19;700;-38
2022/08/13 02:37:32;;;;;;;;;;;;;;;;;;7366837;19;1277;-38
2022/08/13 02:40:00;;;;;;;;;;;;;;;;;;7368605;19;787;-37
2022/08/13 02:42:31;;;;;;;;;;;;;;;;;;7368763;19;874;-38
2022/08/13 02:44:59;;;;;;;;;;;;;;;;;;7370506;19;1857;-38
2022/08/13 02:47:32;;;;;;;;;;;;;;;;;;7367474;19;1275;-38
2022/08/13 02:50:00;;;;;;;;;;;;;;;;;;7367744;19;749;-38
2022/08/13 02:52:28;;;;;;;;;;;;;;;;;;7368741;19;846;-39
2022/08/13 02:54:57;;;;;;;;;;;;;;;;;;7368757;19;816;-37
2022/08/13 02:57:25;;;;;;;;;;;;;;;;;;7366397;19;1358;-37
2022/08/13 02:59:53;;;;;;;;;;;;;;;;;;7367306;19;791;-37
2022/08/13 03:02:21;;;;;;;;;;;;;;;;;;7371591;19;1842;-38
2022/08/13 03:04:49;;;;;;;;;;;;;;;;;;7367904;19;833;-38
2022/08/13 03:07:19;;;;;;;;;;;;;;;;;;7363455;19;1857;-39
2022/08/13 03:09:47;;;;;;;;;;;;;;;;;;7366408;19;808;-38
2022/08/13 03:12:15;;;;;;;;;;;;;;;;;;7367901;19;861;-38
2022/08/13 03:14:43;;;;;;;;;;;;;;;;;;7367292;19;891;-38
2022/08/13 03:17:11;;;;;;;;;;;;;;;;;;7368481;19;2028;-37
2022/08/13 03:19:39;;;;;;;;;;;;;;;;;;7367166;19;839;-39
2022/08/13 03:22:08;;;;;;;;;;;;;;;;;;7369563;19;869;-39
2022/08/13 03:24:36;;;;;;;;;;;;;;;;;;7376708;19;1271;-38
2022/08/13 03:27:04;;;;;;;;;;;;;;;;;;7371269;19;1850;-38
2022/08/13 03:29:32;;;;;;;;;;;;;;;;;;7370310;19;819;-37
2022/08/13 03:32:01;;;;;;;;;;;;;;;;;;7377489;19;1861;-37
2022/08/13 03:34:29;;;;;;;;;;;;;;;;;;7373893;19;812;-42
2022/08/13 03:36:57;;;;;;;;;;;;;;;;;;7373482;19;1347;-38
2022/08/13 03:39:25;;;;;;;;;;;;;;;;;;7373260;19;875;-38
2022/08/13 03:41:54;;;;;;;;;;;;;;;;;;7373677;19;888;-38
2022/08/13 03:44:22;;;;;;;;;;;;;;;;;;7375965;19;812;-38
2022/08/13 03:46:50;;;;;;;;;;;;;;;;;;7371477;19;1870;-38
2022/08/13 03:49:19;;;;;;;;;;;;;;;;;;7375243;19;2371;-38
2022/08/13 03:51:47;;;;;;;;;;;;;;;;;;7376089;19;1137;-37
2022/08/13 03:54:15;;;;;;;;;;;;;;;;;;7373825;19;812;-37
2022/08/13 03:56:45;;;;;;;;;;;;;;;;;;7372181;19;1232;-40
2022/08/13 03:59:13;;;;;;;;;;;;;;;;;;7372595;19;867;-37
2022/08/13 04:01:41;;;;;;;;;;;;;;;;;;7373811;19;833;-38
2022/08/13 04:04:09;;;;;;;;;;;;;;;;;;7375479;19;1658;-38
2022/08/13 04:06:38;;;;;;;;;;;;;;;;;;7372033;19;1853;-37
2022/08/13 04:09:07;;;;;;;;;;;;;;;;;;7372903;19;823;-39
2022/08/13 04:11:35;;;;;;;;;;;;;;;;;;7379482;19;859;-38
2022/08/13 04:14:03;;;;;;;;;;;;;;;;;;7375538;19;836;-38
2022/08/13 04:16:32;;;;;;;;;;;;;;;;;;7379012;19;1319;-37
2022/08/13 04:19:01;;;;;;;;;;;;;;;;;;7393598;19;776;-38
2022/08/13 04:21:31;;;;;;;;;;;;;;;;;;7393647;19;1580;-39
2022/08/13 04:24:02;;;;;;;;;;;;;;;;;;7380652;19;779;-37
2022/08/13 04:26:30;;;;;;;;;;;;;;;;;;7371645;19;1846;-38
2022/08/13 04:28:59;;;;;;;;;;;;;;;;;;7373878;19;1896;-38
2022/08/13 04:31:27;;;;;;;;;;;;;;;;;;7371753;19;793;-38
2022/08/13 04:33:55;;;;;;;;;;;;;;;;;;7371700;19;796;-39
2022/08/13 04:36:23;;;;;;;;;;;;;;;;;;7372127;19;1332;-38
2022/08/13 04:38:52;;;;;;;;;;;;;;;;;;7376733;19;1912;-39
2022/08/13 04:41:21;;;;;;;;;;;;;;;;;;7374952;19;873;-38
2022/08/13 04:43:49;;;;;;;;;;;;;;;;;;7389469;19;919;-37
2022/08/13 04:46:17;;;;;;;;;;;;;;;;;;7388975;19;1818;-38
2022/08/13 04:48:46;;;;;;;;;;;;;;;;;;7379089;19;832;-45
2022/08/13 04:51:14;;;;;;;;;;;;;;;;;;7374925;19;1926;-38
2022/08/13 04:53:42;;;;;;;;;;;;;;;;;;7382111;19;805;-38
2022/08/13 04:56:12;;;;;;;;;;;;;;;;;;7388519;19;1285;-37
2022/08/13 04:58:40;;;;;;;;;;;;;;;;;;7388271;19;792;-38
2022/08/13 05:01:09;;;;;;;;;;;;;;;;;;7382022;19;1090;-40
2022/08/13 05:03:38;;;;;;;;;;;;;;;;;;7373504;19;876;-38
2022/08/13 05:06:06;;;;;;;;;;;;;;;;;;7373851;19;1854;-38
2022/08/13 05:08:34;;;;;;;;;;;;;;;;;;7370052;19;820;-39
2022/08/13 05:11:03;;;;;;;;;;;;;;;;;;7372710;19;865;-38
2022/08/13 05:13:31;;;;;;;;;;;;;;;;;;7372961;19;811;-37
2022/08/13 05:15:59;;;;;;;;;;;;;;;;;;7371715;19;1259;-39
2022/08/13 05:18:27;;;;;;;;;;;;;;;;;;7372493;19;757;-37
2022/08/13 05:20:55;;;;;;;;;;;;;;;;;;7374182;19;1894;-38
2022/08/13 05:23:23;;;;;;;;;;;;;;;;;;7370926;19;864;-37
2022/08/13 05:25:52;;;;;;;;;;;;;;;;;;7371271;19;1853;-37
2022/08/13 05:28:20;;;;;;;;;;;;;;;;;;7368327;19;1260;-37
2022/08/13 05:30:48;;;;;;;;;;;;;;;;;;7371523;19;808;-36
2022/08/13 05:33:16;;;;;;;;;;;;;;;;;;7371979;19;1837;-36
2022/08/13 05:35:45;;;;;;;;;;;;;;;;;;7371920;19;824;-37
2022/08/13 05:38:15;;;;;;;;;;;;;;;;;;7367357;19;1275;-37
2022/08/13 05:40:44;;;;;;;;;;;;;;;;;;7371124;19;770;-37
2022/08/13 05:43:13;;;;;;;;;;;;;;;;;;7370697;19;820;-38
2022/08/13 05:45:41;;;;;;;;;;;;;;;;;;7368512;19;1837;-38
2022/08/13 05:48:09;;;;;;;;;;;;;;;;;;7369638;19;1947;-38
2022/08/13 05:50:37;;;;;;;;;;;;;;;;;;7370638;19;955;-37
2022/08/13 05:53:08;;;;;;;;;;;;;;;;;;7371457;19;858;-38
2022/08/13 05:55:36;;;;;;;;;;;;;;;;;;7378984;19;847;-38
2022/08/13 05:58:04;;;;;;;;;;;;;;;;;;7380044;19;1274;-40
2022/08/13 06:03:25;;;;;;;;;;;;;;;;;;7374637;19;1841;-37
2022/08/13 06:05:54;;;;;;;;;;;;;;;;;;7370310;19;1862;-37
2022/08/13 06:08:26;;;;;;;;;;;;;;;;;;7366475;19;1413;-37
2022/08/13 06:10:54;;;;;;;;;;;;;;;;;;7370715;19;759;-37
2022/08/13 06:13:22;;;;;;;;;;;;;;;;;;7369785;19;811;-37
2022/08/13 06:15:57;;;;;;;;;;;;;;;;;;7370963;19;2002;-38
2022/08/13 06:18:25;;;;;;;;;;;;;;;;;;7369812;19;828;-37
2022/08/13 06:20:53;;;;;;;;;;;;;;;;;;7370446;19;876;-37
2022/08/13 06:23:22;;;;;;;;;;;;;;;;;;7369961;19;808;-38
2022/08/13 06:25:51;;;;;;;;;;;;;;;;;;7370327;19;825;-38
2022/08/13 06:28:19;;;;;;;;;;;;;;;;;;7368238;19;1263;-43
2022/08/13 06:30:47;;;;;;;;;;;;;;;;;;7371652;19;1885;-38
2022/08/13 06:33:15;;;;;;;;;;;;;;;;;;7370246;19;886;-37
2022/08/13 06:35:45;;;;;;;;;;;;;;;;;;7369672;19;784;-37
2022/08/13 06:38:13;;;;;;;;;;;;;;;;;;7366455;19;1322;-38
2022/08/13 06:40:42;;;;;;;;;;;;;;;;;;7369860;19;818;-38
2022/08/13 06:43:10;;;;;;;;;;;;;;;;;;7372553;19;1639;-38
2022/08/13 06:45:39;;;;;;;;;;;;;;;;;;7370718;19;1103;-39
2022/08/13 06:48:07;;;;;;;;;;;;;;;;;;7371733;19;1839;-38
2022/08/13 06:50:37;;;;;;;;;;;;;;;;;;7376482;19;870;-38
2022/08/13 06:53:06;;;;;;;;;;;;;;;;;;7374523;19;788;-38
2022/08/13 06:55:36;;;;;;;;;;;;;;;;;;7369701;19;900;-38
2022/08/13 06:58:04;;;;;;;;;;;;;;;;;;7371347;19;2061;-38
2022/08/13 07:00:32;;;;;;;;;;;;;;;;;;7369300;19;856;-38
2022/08/13 07:03:02;;;;;;;;;;;;;;;;;;7373096;19;887;-38
2022/08/13 07:05:30;;;;;;;;;;;;;;;;;;7372678;19;879;-38
2022/08/13 07:07:59;;;;;;;;;;;;;;;;;;7365992;19;1857;-38
2022/08/13 07:10:27;;;;;;;;;;;;;;;;;;7369587;19;1524;-38
2022/08/13 07:12:55;;;;;;;;;;;;;;;;;;7368843;19;815;-38
2022/08/13 07:15:24;;;;;;;;;;;;;;;;;;7368559;19;871;-38
2022/08/13 07:17:53;;;;;;;;;;;;;;;;;;7365957;19;1337;-38
2022/08/13 07:20:21;;;;;;;;;;;;;;;;;;7367686;19;833;-38
2022/08/13 07:22:50;;;;;;;;;;;;;;;;;;7367017;19;822;-38
2022/08/13 07:25:18;;;;;;;;;;;;;;;;;;7371508;19;1820;-38
2022/08/13 07:27:46;;;;;;;;;;;;;;;;;;7367242;19;1854;-38
2022/08/13 07:30:14;;;;;;;;;;;;;;;;;;7369999;19;844;-38
2022/08/13 07:32:42;;;;;;;;;;;;;;;;;;7368103;19;889;-44
2022/08/13 07:35:11;;;;;;;;;;;;;;;;;;7371072;19;1516;-38
2022/08/13 07:37:39;;;;;;;;;;;;;;;;;;7369039;19;1318;-38
2022/08/13 07:40:08;;;;;;;;;;;;;;;;;;7371619;19;2041;-38
2022/08/13 07:42:36;;;;;;;;;;;;;;;;;;7367951;19;905;-38
2022/08/13 07:45:05;;;;;;;;;;;;;;;;;;7367067;19;796;-39
2022/08/13 07:47:33;;;;;;;;;;;;;;;;;;7365086;19;1854;-38
2022/08/13 07:50:01;;;;;;;;;;;;;;;;;;7366309;19;863;-39
2022/08/13 07:52:29;;;;;;;;;;;;;;;;;;7367927;19;1849;-38
2022/08/13 07:54:58;;;;;;;;;;;;;;;;;;7367579;19;806;-38
2022/08/13 07:57:27;;;;;;;;;;;;;;;;;;7365066;19;1328;-38
2022/08/13 07:59:55;;;;;;;;;;;;;;;;;;7366024;19;810;-38
2022/08/13 08:02:25;;;;;;;;;;;;;;;;;;7366314;19;903;-38
2022/08/13 08:04:53;;;;;;;;;;;;;;;;;;7367070;19;953;-38
2022/08/13 08:07:22;;;;;;;;;;;;;;;;;;7368525;19;1904;-38
2022/08/13 08:09:50;;;;;;;;;;;;;;;;;;7376000;19;1535;-40
2022/08/13 08:12:35;;;;;;;;;;;;;;;;;;7373113;19;707;-38
2022/08/13 08:15:03;;;;;;;;;;;;;;;;;;7373694;19;932;-38
2022/08/13 08:17:31;;;;;;;;;;;;;;;;;;7371296;19;1346;-39
2022/08/13 08:19:59;;;;;;;;;;;;;;;;;;7372369;19;797;-38
2022/08/13 08:22:28;;;;;;;;;;;;;;;;;;7376806;19;1607;-39
2022/08/13 08:24:56;;;;;;;;;;;;;;;;;;7371835;19;872;-39
2022/08/13 08:27:25;;;;;;;;;;;;;;;;;;7370544;19;1845;-38
2022/08/13 08:29:53;;;;;;;;;;;;;;;;;;7372246;19;862;-38
2022/08/13 08:32:21;;;;;;;;;;;;;;;;;;7372377;19;808;-38
2022/08/13 08:34:50;;;;;;;;;;;;;;;;;;7373858;19;1933;-38
2022/08/13 08:42:35;;;;;;;;;;;;;;;;;;7371360;19;1283;-38
2022/08/13 08:42:48;;;;;;;;;;;;;;;;;;7371958;19;1875;-38
2022/08/13 08:45:18;;;;;;;;;;;;;;;;;;7372416;19;765;-38
2022/08/13 08:47:47;;;;;;;;;;;;;;;;;;7370836;19;1854;-38
2022/08/13 08:50:15;;;;;;;;;;;;;;;;;;7376076;19;1822;-38
2022/08/13 08:55:24;;;;;;;;;;;;;;;;;;7372356;19;856;-38
2022/08/13 08:57:52;;;;;;;;;;;;;;;;;;7370423;19;1279;-38
2022/08/13 09:00:20;;;;;;;;;;;;;;;;;;7371176;19;774;-37
2022/08/13 09:02:48;;;;;;;;;;;;;;;;;;7372662;19;2143;-38
2022/08/13 09:05:16;;;;;;;;;;;;;;;;;;7372101;19;800;-38
2022/08/13 09:07:45;;;;;;;;;;;;;;;;;;7369731;19;1850;-38
2022/08/13 09:10:13;;;;;;;;;;;;;;;;;;7372121;19;875;-38
2022/08/13 09:12:42;;;;;;;;;;;;;;;;;;7371723;19;834;-38
2022/08/13 09:15:11;;;;;;;;;;;;;;;;;;7372400;19;839;-38
2022/08/13 09:17:39;;;;;;;;;;;;;;;;;;7373865;19;1923;-38
2022/08/13 09:20:12;;;;;;;;;;;;;;;;;;7371896;19;847;-38
2022/08/13 09:22:41;;;;;;;;;;;;;;;;;;7375490;19;716;-38
2022/08/13 09:25:09;;;;;;;;;;;;;;;;;;7372947;19;842;-38
2022/08/13 09:27:38;;;;;;;;;;;;;;;;;;7370952;19;1830;-38
2022/08/13 09:30:06;;;;;;;;;;;;;;;;;;7373274;19;887;-39
2022/08/13 09:32:35;;;;;;;;;;;;;;;;;;7386542;19;1865;-38
2022/08/13 09:35:03;;;;;;;;;;;;;;;;;;7375112;19;922;-39
2022/08/13 09:37:32;;;;;;;;;;;;;;;;;;7374108;19;1259;-38
2022/08/13 09:40:00;;;;;;;;;;;;;;;;;;7370260;19;1662;-47
2022/08/13 09:42:28;;;;;;;;;;;;;;;;;;7369434;19;798;-37
2022/08/13 09:44:56;;;;;;;;;;;;;;;;;;7371725;19;1922;-39
2022/08/13 09:47:25;;;;;;;;;;;;;;;;;;7368846;19;1846;-38
2022/08/13 09:49:53;;;;;;;;;;;;;;;;;;7370540;19;816;-40
2022/08/13 09:52:21;;;;;;;;;;;;;;;;;;7371266;19;930;-39
2022/08/13 09:54:49;;;;;;;;;;;;;;;;;;7372129;19;882;-38
2022/08/13 09:57:20;;;;;;;;;;;;;;;;;;7376818;19;1247;-39
2022/08/13 09:59:48;;;;;;;;;;;;;;;;;;7374499;19;1780;-38
2022/08/13 10:02:16;;;;;;;;;;;;;;;;;;7373091;19;868;-39
2022/08/13 10:04:45;;;;;;;;;;;;;;;;;;7377001;19;1098;-38
2022/08/13 10:07:13;;;;;;;;;;;;;;;;;;7378143;19;1831;-38
2022/08/13 10:09:41;;;;;;;;;;;;;;;;;;7379882;19;985;-38
2022/08/13 10:12:09;;;;;;;;;;;;;;;;;;7384639;19;1725;-38
2022/08/13 10:14:37;;;;;;;;;;;;;;;;;;7379650;19;1018;-39
2022/08/13 10:17:07;;;;;;;;;;;;;;;;;;7371269;19;1321;-38
2022/08/13 10:19:38;;;;;;;;;;;;;;;;;;7367390;19;1061;-38
2022/08/13 10:22:06;;;;;;;;;;;;;;;;;;7370170;19;874;-39
2022/08/13 10:24:34;;;;;;;;;;;;;;;;;;7373133;19;1772;-40
2022/08/13 10:27:03;;;;;;;;;;;;;;;;;;7368323;19;1338;-38
2022/08/13 10:29:31;;;;;;;;;;;;;;;;;;7369358;19;805;-39
2022/08/13 10:31:59;;;;;;;;;;;;;;;;;;7367166;19;870;-38
2022/08/13 10:34:27;;;;;;;;;;;;;;;;;;7369307;19;804;-37
2022/08/13 10:36:56;;;;;;;;;;;;;;;;;;7367419;19;1259;-37
2022/08/13 10:39:25;;;;;;;;;;;;;;;;;;7369092;19;876;-38
2022/08/13 10:41:53;;;;;;;;;;;;;;;;;;7371890;19;1878;-38
2022/08/13 10:44:21;;;;;;;;;;;;;;;;;;7369846;19;869;-38
2022/08/13 10:46:49;;;;;;;;;;;;;;;;;;7368250;19;1266;-38
2022/08/13 10:49:17;;;;;;;;;;;;;;;;;;7366702;19;1857;-37
2022/08/13 10:51:45;;;;;;;;;;;;;;;;;;7372211;19;871;-37
2022/08/13 10:54:13;;;;;;;;;;;;;;;;;;7383681;19;871;-38
2022/08/13 10:56:41;;;;;;;;;;;;;;;;;;7383026;19;1720;-37
2022/08/13 10:59:10;;;;;;;;;;;;;;;;;;7370667;19;791;-38
2022/08/13 11:01:40;;;;;;;;;;;;;;;;;;7368673;19;868;-38
2022/08/13 11:04:09;;;;;;;;;;;;;;;;;;7369311;19;752;-38
2022/08/13 11:06:37;;;;;;;;;;;;;;;;;;7368679;19;1271;-39
2022/08/13 11:09:06;;;;;;;;;;;;;;;;;;7366138;19;1835;-38
2022/08/13 11:11:34;;;;;;;;;;;;;;;;;;7372567;19;927;-38
2022/08/13 11:14:02;;;;;;;;;;;;;;;;;;7368893;19;802;-39
2022/08/13 11:19:14;;;;;;;;;;;;;;;;;;7365230;19;1870;-42
2022/08/13 11:21:43;;;;;;;;;;;;;;;;;;7370492;19;1334;-44
2022/08/13 11:24:11;;;;;;;;;;;;;;;;;;7365970;19;846;-50
2022/08/13 11:26:39;;;;;;;;;;;;;;;;;;7369499;19;1673;-47
2022/08/13 11:29:07;;;;;;;;;;;;;;;;;;7363273;19;1846;-46
2022/08/13 11:31:35;;;;;;;;;;;;;;;;;;7366462;19;804;-44
2022/08/13 11:34:03;;;;;;;;;;;;;;;;;;7367027;19;795;-46
2022/08/13 11:36:31;;;;;;;;;;;;;;;;;;7366375;19;900;-42
2022/08/13 11:39:00;;;;;;;;;;;;;;;;;;7365654;19;1331;-44
2022/08/13 11:41:28;;;;;;;;;;;;;;;;;;7367728;19;875;-42
2022/08/13 11:43:56;;;;;;;;;;;;;;;;;;7377794;19;2028;-48
2022/08/13 11:46:24;;;;;;;;;;;;;;;;;;7374736;19;818;-43
2022/08/13 11:48:52;;;;;;;;;;;;;;;;;;7372712;19;1851;-44
2022/08/13 11:51:20;;;;;;;;;;;;;;;;;;7374609;19;824;-46
2022/08/13 11:53:48;;;;;;;;;;;;;;;;;;7372795;19;818;-50
2022/08/13 11:56:16;;;;;;;;;;;;;;;;;;7372297;19;787;-48
2022/08/13 11:58:45;;;;;;;;;;;;;;;;;;7371459;19;1858;-45
2022/08/13 12:01:16;;;;;;;;;;;;;;;;;;7372065;19;823;-47
2022/08/13 12:03:44;;;;;;;;;;;;;;;;;;7371979;19;794;-47
2022/08/13 12:06:13;;;;;;;;;;;;;;;;;;7371695;19;834;-48
2022/08/13 12:08:41;;;;;;;;;;;;;;;;;;7369215;19;1846;-47
2022/08/13 12:11:09;;;;;;;;;;;;;;;;;;7372127;19;864;-45
2022/08/13 12:13:38;;;;;;;;;;;;;;;;;;7372681;19;791;-46
2022/08/13 12:16:06;;;;;;;;;;;;;;;;;;7373826;19;1975;-48
2022/08/13 12:18:34;;;;;;;;;;;;;;;;;;7369904;19;1279;-44
2022/08/13 12:21:02;;;;;;;;;;;;;;;;;;7371691;19;811;-45
2022/08/13 12:23:30;;;;;;;;;;;;;;;;;;7371852;19;1138;-45
2022/08/13 12:25:58;;;;;;;;;;;;;;;;;;7370885;19;864;-47
2022/08/13 12:28:26;;;;;;;;;;;;;;;;;;7369861;19;1841;-49
2022/08/13 12:30:54;;;;;;;;;;;;;;;;;;7374056;19;1704;-49
2022/08/13 12:33:23;;;;;;;;;;;;;;;;;;7374967;19;1871;-46
2022/08/13 12:35:51;;;;;;;;;;;;;;;;;;7371885;19;871;-47
2022/08/13 12:38:19;;;;;;;;;;;;;;;;;;7369445;19;1263;-48
2022/08/13 12:40:47;;;;;;;;;;;;;;;;;;7370902;19;799;-43
2022/08/13 12:43:15;;;;;;;;;;;;;;;;;;7371076;19;791;-42
2022/08/13 12:45:43;;;;;;;;;;;;;;;;;;7371188;19;811;-44
2022/08/13 12:48:11;;;;;;;;;;;;;;;;;;7372547;19;1842;-42
2022/08/13 12:50:40;;;;;;;;;;;;;;;;;;7370699;19;863;-46
2022/08/13 12:53:08;;;;;;;;;;;;;;;;;;7369700;19;878;-43
2022/08/13 12:55:36;;;;;;;;;;;;;;;;;;7371048;19;867;-43
2022/08/13 12:58:04;;;;;;;;;;;;;;;;;;7370978;19;1278;-46
2022/08/13 13:00:33;;;;;;;;;;;;;;;;;;7371064;19;880;-43
2022/08/13 13:03:01;;;;;;;;;;;;;;;;;;7371700;19;846;-43
2022/08/13 13:05:29;;;;;;;;;;;;;;;;;;7369417;19;1561;-44
2022/08/13 13:07:57;;;;;;;;;;;;;;;;;;7372869;19;1869;-43
2022/08/13 13:10:25;;;;;;;;;;;;;;;;;;7370939;19;1512;-43
2022/08/13 13:12:54;;;;;;;;;;;;;;;;;;7374465;19;1394;-43
2022/08/13 13:15:22;;;;;;;;;;;;;;;;;;7373886;19;1575;-43
2022/08/13 13:17:50;;;;;;;;;;;;;;;;;;7376495;19;765;-43
2022/08/13 13:20:19;;;;;;;;;;;;;;;;;;7374463;19;1903;-44
2022/08/13 13:22:47;;;;;;;;;;;;;;;;;;7379338;19;851;-43
2022/08/13 13:25:16;;;;;;;;;;;;;;;;;;7366554;19;1635;-43
2022/08/13 13:27:44;;;;;;;;;;;;;;;;;;7371229;19;766;-43
2022/08/13 13:30:12;;;;;;;;;;;;;;;;;;7373780;19;1838;-42
2022/08/13 13:32:40;;;;;;;;;;;;;;;;;;7359576;19;1655;-41
2022/08/13 13:35:09;;;;;;;;;;;;;;;;;;7360991;19;1651;-42
2022/08/13 13:37:37;;;;;;;;;;;;;;;;;;7374563;19;1647;-42
2022/08/13 13:40:05;;;;;;;;;;;;;;;;;;7374440;19;1613;-43
2022/08/13 13:42:35;;;;;;;;;;;;;;;;;;7378579;19;862;-41
2022/08/13 13:45:03;;;;;;;;;;;;;;;;;;7379658;19;866;-49
2022/08/13 13:47:31;;;;;;;;;;;;;;;;;;7380606;19;790;-43
2022/08/13 13:50:00;;;;;;;;;;;;;;;;;;7369244;19;1842;-42
2022/08/13 13:52:28;;;;;;;;;;;;;;;;;;7379195;19;1335;-43
2022/08/13 13:54:56;;;;;;;;;;;;;;;;;;7381978;19;1737;-43
2022/08/13 13:57:24;;;;;;;;;;;;;;;;;;7377968;19;912;-43
2022/08/13 13:59:52;;;;;;;;;;;;;;;;;;7370086;19;1287;-42
2022/08/13 14:02:21;;;;;;;;;;;;;;;;;;7372574;19;1033;-42
2022/08/13 14:04:50;;;;;;;;;;;;;;;;;;7372674;19;826;-42
2022/08/13 14:07:18;;;;;;;;;;;;;;;;;;7371357;19;782;-45
2022/08/13 14:09:46;;;;;;;;;;;;;;;;;;7370684;19;1849;-42
2022/08/13 14:12:14;;;;;;;;;;;;;;;;;;7375236;19;1856;-43
2022/08/13 14:14:42;;;;;;;;;;;;;;;;;;7372771;19;808;-42
2022/08/13 14:17:10;;;;;;;;;;;;;;;;;;7371312;19;1072;-41
2022/08/13 14:19:41;;;;;;;;;;;;;;;;;;7366994;19;1634;-42
2022/08/13 14:22:09;;;;;;;;;;;;;;;;;;7365685;19;734;-43
2022/08/13 14:24:38;;;;;;;;;;;;;;;;;;7369761;19;833;-42
2022/08/13 14:27:06;;;;;;;;;;;;;;;;;;7375595;19;1919;-41
2022/08/13 14:29:34;;;;;;;;;;;;;;;;;;7365152;19;1872;-42
2022/08/13 14:32:02;;;;;;;;;;;;;;;;;;7372529;19;802;-42
2022/08/13 14:34:30;;;;;;;;;;;;;;;;;;7372037;19;806;-43
2022/08/13 14:37:00;;;;;;;;;;;;;;;;;;7368763;19;848;-43
2022/08/13 14:39:28;;;;;;;;;;;;;;;;;;7365938;19;1322;-46
2022/08/13 14:41:56;;;;;;;;;;;;;;;;;;7368900;19;897;-42
2022/08/13 14:44:24;;;;;;;;;;;;;;;;;;7373420;19;1899;-42
2022/08/13 14:46:52;;;;;;;;;;;;;;;;;;7372939;19;897;-44
2022/08/13 14:49:20;;;;;;;;;;;;;;;;;;7368694;19;1848;-41
2022/08/13 14:51:49;;;;;;;;;;;;;;;;;;7371850;19;740;-44
2022/08/13 14:54:17;;;;;;;;;;;;;;;;;;7374465;19;827;-43
2022/08/13 14:56:45;;;;;;;;;;;;;;;;;;7369085;19;896;-45
2022/08/13 14:59:13;;;;;;;;;;;;;;;;;;7366232;19;1929;-43
2022/08/13 15:01:41;;;;;;;;;;;;;;;;;;7372990;19;1964;-41
2022/08/13 15:04:09;;;;;;;;;;;;;;;;;;7368385;19;871;-42
2022/08/13 15:06:37;;;;;;;;;;;;;;;;;;7368759;19;890;-43
2022/08/13 15:09:06;;;;;;;;;;;;;;;;;;7365562;19;1862;-45
2022/08/13 15:11:34;;;;;;;;;;;;;;;;;;7368404;19;805;-43
2022/08/13 15:14:02;;;;;;;;;;;;;;;;;;7370196;19;880;-43
2022/08/13 15:16:30;;;;;;;;;;;;;;;;;;7372963;19;1810;-43
2022/08/13 15:18:58;;;;;;;;;;;;;;;;;;7380587;19;1370;-43
2022/08/13 15:21:26;;;;;;;;;;;;;;;;;;7384720;19;2016;-44
2022/08/13 15:23:54;;;;;;;;;;;;;;;;;;7381000;19;842;-45
2022/08/13 15:26:23;;;;;;;;;;;;;;;;;;7381923;19;819;-42
2022/08/13 15:28:51;;;;;;;;;;;;;;;;;;7380247;19;1839;-44
2022/08/13 15:31:19;;;;;;;;;;;;;;;;;;7382410;19;836;-44
2022/08/13 15:33:47;;;;;;;;;;;;;;;;;;7384496;19;1880;-41
2022/08/13 15:36:15;;;;;;;;;;;;;;;;;;7381396;19;803;-46
2022/08/13 15:38:44;;;;;;;;;;;;;;;;;;7378112;19;1389;-44
2022/08/13 15:41:12;;;;;;;;;;;;;;;;;;7380191;19;957;-43
2022/08/13 15:43:40;;;;;;;;;;;;;;;;;;7380357;19;1146;-43
2022/08/13 15:46:08;;;;;;;;;;;;;;;;;;7381171;19;1867;-42
2022/08/13 15:48:37;;;;;;;;;;;;;;;;;;7382649;19;1282;-41
2022/08/13 15:51:05;;;;;;;;;;;;;;;;;;7382777;19;1891;-43
2022/08/13 15:53:33;;;;;;;;;;;;;;;;;;7380967;19;860;-44
2022/08/13 15:56:01;;;;;;;;;;;;;;;;;;7379748;19;811;-43
2022/08/13 15:58:31;;;;;;;;;;;;;;;;;;7378992;19;1336;-44
2022/08/13 16:00:59;;;;;;;;;;;;;;;;;;7380263;19;924;-44
2022/08/13 16:03:27;;;;;;;;;;;;;;;;;;7380486;19;864;-43
2022/08/13 16:05:56;;;;;;;;;;;;;;;;;;7381272;19;1954;-42
2022/08/13 16:08:24;;;;;;;;;;;;;;;;;;7381828;19;1981;-42
2022/08/13 16:10:54;;;;;;;;;;;;;;;;;;7377645;19;1853;-45
2022/08/13 16:13:22;;;;;;;;;;;;;;;;;;7379290;19;889;-43
2022/08/13 16:15:50;;;;;;;;;;;;;;;;;;7377574;19;837;-42
2022/08/13 16:18:19;;;;;;;;;;;;;;;;;;7377789;19;1278;-45
2022/08/13 16:20:48;;;;;;;;;;;;;;;;;;7378520;19;795;-45
2022/08/13 16:23:16;;;;;;;;;;;;;;;;;;7382973;19;1878;-42
2022/08/13 16:25:44;;;;;;;;;;;;;;;;;;7380136;19;874;-42
2022/08/13 16:28:12;;;;;;;;;;;;;;;;;;7376477;19;2050;-42
2022/08/13 16:30:40;;;;;;;;;;;;;;;;;;7373803;19;1835;-43
2022/08/13 16:33:08;;;;;;;;;;;;;;;;;;7371507;19;850;-46
2022/08/13 16:35:37;;;;;;;;;;;;;;;;;;7371699;19;858;-42
2022/08/13 16:38:05;;;;;;;;;;;;;;;;;;7371096;19;1287;-42
2022/08/13 16:40:34;;;;;;;;;;;;;;;;;;7374445;19;2136;-42
2022/08/13 16:43:02;;;;;;;;;;;;;;;;;;7370684;19;925;-43
2022/08/13 16:45:30;;;;;;;;;;;;;;;;;;7371645;19;848;-45
2022/08/13 16:47:58;;;;;;;;;;;;;;;;;;7371644;19;961;-44
2022/08/13 16:50:26;;;;;;;;;;;;;;;;;;7371600;19;1866;-46
2022/08/13 16:52:54;;;;;;;;;;;;;;;;;;7371406;19;819;-46
2022/08/13 16:55:23;;;;;;;;;;;;;;;;;;7370873;19;1914;-45
2022/08/13 16:57:51;;;;;;;;;;;;;;;;;;7369430;19;843;-44
2022/08/13 17:00:21;;;;;;;;;;;;;;;;;;7368408;19;1276;-44
2022/08/13 17:10:51;;;;;;;;;;;;;;;;;;7369389;19;1838;-44
2022/08/13 17:13:21;;;;;;;;;;;;;;;;;;7373634;19;1764;-45
2022/08/13 17:15:49;;;;;;;;;;;;;;;;;;7370841;19;876;-43
2022/08/13 17:18:17;;;;;;;;;;;;;;;;;;7369714;19;1281;-44
2022/08/13 17:20:46;;;;;;;;;;;;;;;;;;7370409;19;700;-45
2022/08/13 17:23:14;;;;;;;;;;;;;;;;;;7369802;19;830;-45
2022/08/13 17:25:42;;;;;;;;;;;;;;;;;;7372613;19;940;-43
2022/08/13 17:28:10;;;;;;;;;;;;;;;;;;7370765;19;1892;-43
2022/08/13 17:30:38;;;;;;;;;;;;;;;;;;7367946;19;1845;-45
2022/08/13 17:33:07;;;;;;;;;;;;;;;;;;7372166;19;2240;-42
2022/08/13 17:35:35;;;;;;;;;;;;;;;;;;7375083;19;1500;-47
2022/08/13 17:38:03;;;;;;;;;;;;;;;;;;7369883;19;808;-49
2022/08/13 17:40:32;;;;;;;;;;;;;;;;;;7365923;19;798;-45
2022/08/13 17:43:00;;;;;;;;;;;;;;;;;;7369333;19;851;-44
2022/08/13 17:45:28;;;;;;;;;;;;;;;;;;7372064;19;1909;-43
2022/08/13 17:47:58;;;;;;;;;;;;;;;;;;7368954;19;855;-48